sensor_id;sensor_type;location;lat;lon;timestamp;pressure;altitude;pressure_sealevel;temperature;humidity
46379;BME280;32084;42.254;22.744;2022-09-01T00:01:29;95073.75;;;16.90;91.01
46379;BME280;32084;42.254;22.744;2022-09-01T00:03:56;95066.00;;;16.80;91.20
46379;BME280;32084;42.254;22.744;2022-09-01T00:06:29;95069.34;;;16.75;91.57
46379;BME280;32084;42.254;22.744;2022-09-01T00:08:56;95067.00;;;16.66;91.83
46379;BME280;32084;42.254;22.744;2022-09-01T00:11:24;95064.31;;;16.66;92.19
46379;BME280;32084;42.254;22.744;2022-09-01T00:13:51;95075.16;;;16.79;91.37
46379;BME280;32084;42.254;22.744;2022-09-01T00:16:18;95070.59;;;16.79;91.23
46379;BME280;32084;42.254;22.744;2022-09-01T00:18:45;95074.09;;;16.73;91.31
46379;BME280;32084;42.254;22.744;2022-09-01T00:21:15;95072.78;;;16.63;91.74
46379;BME280;32084;42.254;22.744;2022-09-01T00:23:41;95067.34;;;16.49;91.88
46379;BME280;32084;42.254;22.744;2022-09-01T00:26:07;95066.66;;;16.40;91.95
46379;BME280;32084;42.254;22.744;2022-09-01T00:28:34;95067.50;;;16.41;92.19
46379;BME280;32084;42.254;22.744;2022-09-01T00:31:00;95074.81;;;16.47;92.68
46379;BME280;32084;42.254;22.744;2022-09-01T00:33:27;95080.84;;;16.56;92.84
46379;BME280;32084;42.254;22.744;2022-09-01T00:35:53;95077.75;;;16.52;92.33
46379;BME280;32084;42.254;22.744;2022-09-01T00:38:19;95082.47;;;16.44;91.76
46379;BME280;32084;42.254;22.744;2022-09-01T00:40:45;95083.91;;;16.39;91.94
46379;BME280;32084;42.254;22.744;2022-09-01T00:43:12;95076.50;;;16.55;90.83
46379;BME280;32084;42.254;22.744;2022-09-01T00:45:39;95074.88;;;16.67;89.95
46379;BME280;32084;42.254;22.744;2022-09-01T00:48:06;95074.66;;;16.62;90.85
46379;BME280;32084;42.254;22.744;2022-09-01T00:50:32;95069.28;;;16.62;91.31
46379;BME280;32084;42.254;22.744;2022-09-01T00:52:58;95071.13;;;16.62;91.04
46379;BME280;32084;42.254;22.744;2022-09-01T00:55:28;95081.19;;;16.39;91.04
46379;BME280;32084;42.254;22.744;2022-09-01T00:57:55;95076.94;;;16.24;91.71
46379;BME280;32084;42.254;22.744;2022-09-01T01:00:24;95072.16;;;16.26;92.13
46379;BME280;32084;42.254;22.744;2022-09-01T01:02:51;95070.53;;;16.31;91.80
46379;BME280;32084;42.254;22.744;2022-09-01T01:05:21;95075.56;;;16.34;91.50
46379;BME280;32084;42.254;22.744;2022-09-01T01:07:48;95080.94;;;16.34;91.55
46379;BME280;32084;42.254;22.744;2022-09-01T01:10:15;95073.25;;;16.31;91.91
46379;BME280;32084;42.254;22.744;2022-09-01T01:12:42;95060.56;;;16.25;91.71
46379;BME280;32084;42.254;22.744;2022-09-01T01:15:10;95071.88;;;16.07;92.09
46379;BME280;32084;42.254;22.744;2022-09-01T01:17:37;95068.91;;;16.02;92.19
46379;BME280;32084;42.254;22.744;2022-09-01T01:20:03;95067.13;;;15.88;92.22
46379;BME280;32084;42.254;22.744;2022-09-01T01:25:45;95062.91;;;16.07;92.69
46379;BME280;32084;42.254;22.744;2022-09-01T01:30:41;95062.53;;;16.10;91.98
46379;BME280;32084;42.254;22.744;2022-09-01T01:33:08;95062.50;;;16.03;92.36
46379;BME280;32084;42.254;22.744;2022-09-01T01:35:34;95068.28;;;16.00;91.85
46379;BME280;32084;42.254;22.744;2022-09-01T01:38:02;95068.66;;;15.97;91.75
46379;BME280;32084;42.254;22.744;2022-09-01T01:40:32;95070.16;;;15.99;92.49
46379;BME280;32084;42.254;22.744;2022-09-01T01:42:58;95070.59;;;16.03;92.55
46379;BME280;32084;42.254;22.744;2022-09-01T01:45:26;95075.56;;;16.06;92.64
46379;BME280;32084;42.254;22.744;2022-09-01T01:47:52;95073.03;;;15.98;91.92
46379;BME280;32084;42.254;22.744;2022-09-01T01:50:22;95079.94;;;16.07;91.80
46379;BME280;32084;42.254;22.744;2022-09-01T01:52:49;95076.19;;;16.02;91.52
46379;BME280;32084;42.254;22.744;2022-09-01T01:55:15;95082.84;;;16.06;91.47
46379;BME280;32084;42.254;22.744;2022-09-01T01:57:45;95087.31;;;15.92;91.39
46379;BME280;32084;42.254;22.744;2022-09-01T02:00:19;95105.16;;;15.71;92.11
46379;BME280;32084;42.254;22.744;2022-09-01T02:02:46;95092.25;;;15.67;92.42
46379;BME280;32084;42.254;22.744;2022-09-01T02:05:23;95092.19;;;15.81;92.27
46379;BME280;32084;42.254;22.744;2022-09-01T02:07:57;95086.56;;;15.76;92.32
46379;BME280;32084;42.254;22.744;2022-09-01T02:10:25;95093.16;;;15.74;92.13
46379;BME280;32084;42.254;22.744;2022-09-01T02:12:52;95088.41;;;15.76;92.09
46379;BME280;32084;42.254;22.744;2022-09-01T02:15:18;95087.88;;;15.87;92.61
46379;BME280;32084;42.254;22.744;2022-09-01T02:17:44;95086.16;;;15.79;92.60
46379;BME280;32084;42.254;22.744;2022-09-01T02:20:11;95090.13;;;15.62;91.73
46379;BME280;32084;42.254;22.744;2022-09-01T02:22:41;95093.16;;;15.52;91.86
46379;BME280;32084;42.254;22.744;2022-09-01T02:25:09;95084.81;;;15.47;93.24
46379;BME280;32084;42.254;22.744;2022-09-01T02:27:36;95084.78;;;15.40;93.24
46379;BME280;32084;42.254;22.744;2022-09-01T02:30:05;95090.66;;;15.51;92.67
46379;BME280;32084;42.254;22.744;2022-09-01T02:32:35;95092.47;;;15.65;92.96
46379;BME280;32084;42.254;22.744;2022-09-01T02:35:02;95094.69;;;15.61;92.65
46379;BME280;32084;42.254;22.744;2022-09-01T02:37:31;95080.78;;;15.58;92.70
46379;BME280;32084;42.254;22.744;2022-09-01T02:39:58;95079.91;;;15.57;92.09
46379;BME280;32084;42.254;22.744;2022-09-01T02:42:24;95083.91;;;15.61;92.48
46379;BME280;32084;42.254;22.744;2022-09-01T02:44:54;95079.50;;;15.75;92.06
46379;BME280;32084;42.254;22.744;2022-09-01T02:47:21;95071.75;;;15.72;91.93
46379;BME280;32084;42.254;22.744;2022-09-01T02:49:50;95079.69;;;15.74;91.96
46379;BME280;32084;42.254;22.744;2022-09-01T02:52:17;95077.25;;;15.79;91.47
46379;BME280;32084;42.254;22.744;2022-09-01T02:54:45;95080.31;;;15.76;92.09
46379;BME280;32084;42.254;22.744;2022-09-01T02:57:14;95078.72;;;15.60;92.38
46379;BME280;32084;42.254;22.744;2022-09-01T02:59:40;95084.03;;;15.53;92.72
46379;BME280;32084;42.254;22.744;2022-09-01T03:02:07;95085.72;;;15.54;93.24
46379;BME280;32084;42.254;22.744;2022-09-01T03:04:34;95087.00;;;15.58;92.78
46379;BME280;32084;42.254;22.744;2022-09-01T03:07:04;95086.50;;;15.48;92.21
46379;BME280;32084;42.254;22.744;2022-09-01T03:09:30;95084.06;;;15.32;92.43
46379;BME280;32084;42.254;22.744;2022-09-01T03:11:57;95085.84;;;15.25;92.79
46379;BME280;32084;42.254;22.744;2022-09-01T03:14:23;95089.50;;;15.17;93.22
46379;BME280;32084;42.254;22.744;2022-09-01T03:16:50;95089.13;;;15.20;93.69
46379;BME280;32084;42.254;22.744;2022-09-01T03:19:17;95094.25;;;15.36;92.94
46379;BME280;32084;42.254;22.744;2022-09-01T03:21:44;95100.94;;;15.40;92.69
46379;BME280;32084;42.254;22.744;2022-09-01T03:24:12;95100.25;;;15.38;92.46
46379;BME280;32084;42.254;22.744;2022-09-01T03:26:39;95093.50;;;15.42;92.37
46379;BME280;32084;42.254;22.744;2022-09-01T03:29:06;95099.38;;;15.31;91.97
46379;BME280;32084;42.254;22.744;2022-09-01T03:31:33;95105.09;;;15.21;92.52
46379;BME280;32084;42.254;22.744;2022-09-01T03:34:00;95101.72;;;15.19;92.29
46379;BME280;32084;42.254;22.744;2022-09-01T03:36:28;95092.63;;;15.20;92.37
46379;BME280;32084;42.254;22.744;2022-09-01T03:38:55;95105.81;;;15.15;91.91
46379;BME280;32084;42.254;22.744;2022-09-01T03:41:22;95104.72;;;15.10;92.19
46379;BME280;32084;42.254;22.744;2022-09-01T03:43:49;95100.06;;;14.97;93.10
46379;BME280;32084;42.254;22.744;2022-09-01T03:46:19;95100.94;;;15.04;92.73
46379;BME280;32084;42.254;22.744;2022-09-01T03:48:47;95103.06;;;15.09;93.29
46379;BME280;32084;42.254;22.744;2022-09-01T03:51:15;95104.31;;;15.28;92.89
46379;BME280;32084;42.254;22.744;2022-09-01T03:53:42;95105.41;;;15.33;93.11
46379;BME280;32084;42.254;22.744;2022-09-01T03:56:08;95101.94;;;15.39;93.23
46379;BME280;32084;42.254;22.744;2022-09-01T03:58:36;95097.19;;;15.41;93.04
46379;BME280;32084;42.254;22.744;2022-09-01T04:01:02;95105.72;;;15.45;93.16
46379;BME280;32084;42.254;22.744;2022-09-01T04:03:30;95111.75;;;15.47;93.11
46379;BME280;32084;42.254;22.744;2022-09-01T04:05:57;95108.59;;;15.43;92.03
46379;BME280;32084;42.254;22.744;2022-09-01T04:08:24;95106.25;;;15.34;92.66
46379;BME280;32084;42.254;22.744;2022-09-01T04:10:54;95105.41;;;15.33;92.82
46379;BME280;32084;42.254;22.744;2022-09-01T04:13:25;95105.22;;;15.35;92.94
46379;BME280;32084;42.254;22.744;2022-09-01T04:15:51;95098.34;;;15.32;92.93
46379;BME280;32084;42.254;22.744;2022-09-01T04:18:17;95092.59;;;15.35;93.37
46379;BME280;32084;42.254;22.744;2022-09-01T04:20:48;95087.25;;;15.42;92.72
46379;BME280;32084;42.254;22.744;2022-09-01T04:25:46;95095.78;;;15.67;92.13
46379;BME280;32084;42.254;22.744;2022-09-01T04:28:13;95101.81;;;15.69;92.31
46379;BME280;32084;42.254;22.744;2022-09-01T04:30:48;95092.47;;;15.65;93.32
46379;BME280;32084;42.254;22.744;2022-09-01T04:33:15;95098.66;;;15.66;93.84
46379;BME280;32084;42.254;22.744;2022-09-01T04:35:42;95093.72;;;15.69;93.80
46379;BME280;32084;42.254;22.744;2022-09-01T04:38:08;95097.22;;;15.85;93.67
46379;BME280;32084;42.254;22.744;2022-09-01T04:40:38;95099.38;;;15.96;93.87
46379;BME280;32084;42.254;22.744;2022-09-01T04:43:05;95102.19;;;15.88;93.29
46379;BME280;32084;42.254;22.744;2022-09-01T04:45:33;95105.41;;;15.98;93.26
46379;BME280;32084;42.254;22.744;2022-09-01T04:48:01;95103.19;;;16.08;93.79
46379;BME280;32084;42.254;22.744;2022-09-01T04:50:27;95106.16;;;16.20;93.77
46379;BME280;32084;42.254;22.744;2022-09-01T04:52:58;95105.41;;;16.33;94.11
46379;BME280;32084;42.254;22.744;2022-09-01T04:55:27;95114.03;;;16.50;94.27
46379;BME280;32084;42.254;22.744;2022-09-01T04:57:55;95110.34;;;16.57;93.07
46379;BME280;32084;42.254;22.744;2022-09-01T05:00:23;95105.63;;;16.66;93.54
46379;BME280;32084;42.254;22.744;2022-09-01T05:02:50;95111.56;;;16.90;92.45
46379;BME280;32084;42.254;22.744;2022-09-01T05:05:18;95114.22;;;17.45;90.71
46379;BME280;32084;42.254;22.744;2022-09-01T05:07:44;95113.88;;;17.81;88.93
46379;BME280;32084;42.254;22.744;2022-09-01T05:10:11;95112.81;;;17.75;89.03
46379;BME280;32084;42.254;22.744;2022-09-01T05:12:38;95107.63;;;17.67;89.70
46379;BME280;32084;42.254;22.744;2022-09-01T05:15:05;95106.38;;;17.76;89.17
46379;BME280;32084;42.254;22.744;2022-09-01T05:17:34;95106.81;;;17.67;89.76
46379;BME280;32084;42.254;22.744;2022-09-01T05:20:03;95109.94;;;17.70;89.70
46379;BME280;32084;42.254;22.744;2022-09-01T05:22:29;95105.59;;;17.89;89.47
46379;BME280;32084;42.254;22.744;2022-09-01T05:24:57;95100.00;;;17.91;89.48
46379;BME280;32084;42.254;22.744;2022-09-01T05:27:24;95103.31;;;18.00;89.23
46379;BME280;32084;42.254;22.744;2022-09-01T05:29:51;95099.16;;;17.97;89.30
46379;BME280;32084;42.254;22.744;2022-09-01T05:32:18;95110.81;;;17.91;90.12
46379;BME280;32084;42.254;22.744;2022-09-01T05:48:06;95091.69;;;17.11;96.00
46379;BME280;32084;42.254;22.744;2022-09-01T05:50:34;95097.81;;;17.40;94.53
46379;BME280;32084;42.254;22.744;2022-09-01T05:53:00;95097.63;;;17.68;93.70
46379;BME280;32084;42.254;22.744;2022-09-01T05:55:27;95085.63;;;17.97;92.24
46379;BME280;32084;42.254;22.744;2022-09-01T05:57:53;95083.91;;;18.23;91.46
46379;BME280;32084;42.254;22.744;2022-09-01T06:00:19;95083.28;;;18.34;89.95
46379;BME280;32084;42.254;22.744;2022-09-01T06:02:45;95087.41;;;18.57;89.70
46379;BME280;32084;42.254;22.744;2022-09-01T06:05:11;95078.78;;;18.80;87.83
46379;BME280;32084;42.254;22.744;2022-09-01T06:07:38;95089.22;;;18.76;87.55
46379;BME280;32084;42.254;22.744;2022-09-01T06:10:05;95082.75;;;18.90;87.81
46379;BME280;32084;42.254;22.744;2022-09-01T06:12:31;95079.97;;;19.04;85.54
46379;BME280;32084;42.254;22.744;2022-09-01T06:14:59;95074.22;;;19.25;84.30
46379;BME280;32084;42.254;22.744;2022-09-01T06:18:32;95075.09;;;19.19;85.09
46379;BME280;32084;42.254;22.744;2022-09-01T06:21:01;95084.91;;;19.20;83.98
46379;BME280;32084;42.254;22.744;2022-09-01T06:23:28;95076.78;;;19.20;85.58
46379;BME280;32084;42.254;22.744;2022-09-01T06:25:54;95085.06;;;19.25;84.45
46379;BME280;32084;42.254;22.744;2022-09-01T06:28:21;95082.69;;;19.42;84.80
46379;BME280;32084;42.254;22.744;2022-09-01T06:30:48;95078.28;;;19.80;82.12
46379;BME280;32084;42.254;22.744;2022-09-01T06:33:16;95077.28;;;19.99;81.09
46379;BME280;32084;42.254;22.744;2022-09-01T06:35:43;95075.53;;;20.12;80.30
46379;BME280;32084;42.254;22.744;2022-09-01T06:38:12;95078.31;;;20.48;79.26
46379;BME280;32084;42.254;22.744;2022-09-01T06:40:38;95076.41;;;20.93;77.37
46379;BME280;32084;42.254;22.744;2022-09-01T06:43:06;95076.25;;;21.36;76.69
46379;BME280;32084;42.254;22.744;2022-09-01T06:45:44;95079.22;;;22.66;69.91
46379;BME280;32084;42.254;22.744;2022-09-01T06:48:14;95072.88;;;24.67;62.81
46379;BME280;32084;42.254;22.744;2022-09-01T06:50:41;95073.69;;;26.70;56.29
46379;BME280;32084;42.254;22.744;2022-09-01T06:53:07;95079.75;;;28.44;50.58
46379;BME280;32084;42.254;22.744;2022-09-01T06:55:38;95075.03;;;30.16;46.90
46379;BME280;32084;42.254;22.744;2022-09-01T06:58:05;95076.53;;;31.30;43.42
46379;BME280;32084;42.254;22.744;2022-09-01T07:00:32;95084.19;;;31.82;41.82
46379;BME280;32084;42.254;22.744;2022-09-01T07:03:00;95083.97;;;32.35;41.33
46379;BME280;32084;42.254;22.744;2022-09-01T07:05:30;95094.13;;;32.59;40.32
46379;BME280;32084;42.254;22.744;2022-09-01T07:07:56;95095.72;;;32.79;38.59
46379;BME280;32084;42.254;22.744;2022-09-01T07:10:22;95091.09;;;33.35;38.11
46379;BME280;32084;42.254;22.744;2022-09-01T07:12:49;95089.94;;;33.08;38.92
46379;BME280;32084;42.254;22.744;2022-09-01T07:15:16;95088.88;;;32.90;39.10
46379;BME280;32084;42.254;22.744;2022-09-01T07:17:46;95082.53;;;32.38;39.47
46379;BME280;32084;42.254;22.744;2022-09-01T07:20:15;95074.59;;;31.55;40.07
46379;BME280;32084;42.254;22.744;2022-09-01T07:22:41;95065.00;;;30.70;43.54
46379;BME280;32084;42.254;22.744;2022-09-01T07:25:07;95068.97;;;29.14;46.34
46379;BME280;32084;42.254;22.744;2022-09-01T07:27:38;95059.81;;;27.44;50.40
46379;BME280;32084;42.254;22.744;2022-09-01T07:30:04;95058.88;;;26.71;51.61
46379;BME280;32084;42.254;22.744;2022-09-01T07:32:33;95059.84;;;26.17;56.23
46379;BME280;32084;42.254;22.744;2022-09-01T07:35:00;95041.56;;;25.95;57.47
46379;BME280;32084;42.254;22.744;2022-09-01T07:37:26;95048.31;;;25.87;57.12
46379;BME280;32084;42.254;22.744;2022-09-01T07:39:52;95051.44;;;25.69;59.14
46379;BME280;32084;42.254;22.744;2022-09-01T07:42:19;95043.31;;;25.79;57.88
46379;BME280;32084;42.254;22.744;2022-09-01T07:44:45;95046.13;;;25.89;57.91
46379;BME280;32084;42.254;22.744;2022-09-01T07:47:11;95040.09;;;25.87;59.27
46379;BME280;32084;42.254;22.744;2022-09-01T07:49:40;95044.19;;;25.85;60.03
46379;BME280;32084;42.254;22.744;2022-09-01T07:52:06;95043.00;;;25.76;58.34
46379;BME280;32084;42.254;22.744;2022-09-01T07:54:32;95040.66;;;25.89;58.03
46379;BME280;32084;42.254;22.744;2022-09-01T07:56:59;95040.38;;;25.86;59.51
46379;BME280;32084;42.254;22.744;2022-09-01T07:59:26;95028.09;;;25.61;59.58
46379;BME280;32084;42.254;22.744;2022-09-01T08:01:53;95032.88;;;25.76;61.05
46379;BME280;32084;42.254;22.744;2022-09-01T08:04:20;95025.66;;;25.92;61.52
46379;BME280;32084;42.254;22.744;2022-09-01T08:06:49;95023.59;;;25.77;60.42
46379;BME280;32084;42.254;22.744;2022-09-01T08:09:15;95033.09;;;25.69;60.78
46379;BME280;32084;42.254;22.744;2022-09-01T08:11:41;95025.19;;;25.73;63.13
46379;BME280;32084;42.254;22.744;2022-09-01T08:14:07;95027.22;;;25.56;60.31
46379;BME280;32084;42.254;22.744;2022-09-01T08:16:34;95026.06;;;25.51;61.72
46379;BME280;32084;42.254;22.744;2022-09-01T08:19:00;95021.06;;;25.43;63.85
46379;BME280;32084;42.254;22.744;2022-09-01T08:21:26;95016.69;;;25.42;63.74
46379;BME280;32084;42.254;22.744;2022-09-01T08:23:53;95014.91;;;25.58;62.16
46379;BME280;32084;42.254;22.744;2022-09-01T08:26:21;95018.78;;;25.35;61.05
46379;BME280;32084;42.254;22.744;2022-09-01T08:28:47;95014.34;;;25.29;63.41
46379;BME280;32084;42.254;22.744;2022-09-01T08:31:15;95013.75;;;25.27;63.30
46379;BME280;32084;42.254;22.744;2022-09-01T08:33:42;95005.97;;;25.19;64.00
46379;BME280;32084;42.254;22.744;2022-09-01T08:36:09;95003.50;;;25.17;62.18
46379;BME280;32084;42.254;22.744;2022-09-01T08:38:35;95005.84;;;25.25;63.63
46379;BME280;32084;42.254;22.744;2022-09-01T08:41:02;95000.19;;;25.37;63.92
46379;BME280;32084;42.254;22.744;2022-09-01T08:46:33;94988.88;;;25.28;60.42
46379;BME280;32084;42.254;22.744;2022-09-01T08:49:00;94992.97;;;25.26;63.90
46379;BME280;32084;42.254;22.744;2022-09-01T08:54:19;94988.34;;;25.54;62.89
46379;BME280;32084;42.254;22.744;2022-09-01T08:56:49;94985.13;;;25.62;60.63
46379;BME280;32084;42.254;22.744;2022-09-01T08:59:17;94994.16;;;25.62;61.44
46379;BME280;32084;42.254;22.744;2022-09-01T09:06:47;94980.66;;;25.83;59.86
46379;BME280;32084;42.254;22.744;2022-09-01T09:09:18;94977.91;;;25.83;62.74
46379;BME280;32084;42.254;22.744;2022-09-01T09:17:14;94966.09;;;26.09;62.33
46379;BME280;32084;42.254;22.744;2022-09-01T09:19:42;94960.66;;;26.15;61.34
46379;BME280;32084;42.254;22.744;2022-09-01T09:22:11;94956.84;;;26.21;60.57
46379;BME280;32084;42.254;22.744;2022-09-01T09:27:17;94949.53;;;26.37;60.98
46379;BME280;32084;42.254;22.744;2022-09-01T09:29:51;94952.66;;;26.51;60.78
46379;BME280;32084;42.254;22.744;2022-09-01T09:32:18;94948.28;;;26.55;60.67
46379;BME280;32084;42.254;22.744;2022-09-01T09:34:44;94946.63;;;26.54;58.51
46379;BME280;32084;42.254;22.744;2022-09-01T09:37:20;94947.38;;;26.44;60.74
46379;BME280;32084;42.254;22.744;2022-09-01T09:42:35;94943.59;;;26.55;60.41
46379;BME280;32084;42.254;22.744;2022-09-01T09:45:06;94928.06;;;26.71;59.36
46379;BME280;32084;42.254;22.744;2022-09-01T09:54:13;94926.09;;;26.56;59.55
46379;BME280;32084;42.254;22.744;2022-09-01T09:56:40;94917.13;;;26.76;59.90
46379;BME280;32084;42.254;22.744;2022-09-01T09:59:16;94909.50;;;26.88;59.46
46379;BME280;32084;42.254;22.744;2022-09-01T10:01:42;94907.31;;;26.96;58.60
46379;BME280;32084;42.254;22.744;2022-09-01T10:04:08;94907.47;;;26.63;60.39
46379;BME280;32084;42.254;22.744;2022-09-01T10:09:06;94904.34;;;27.07;58.92
46379;BME280;32084;42.254;22.744;2022-09-01T10:11:43;94909.03;;;27.17;59.09
46379;BME280;32084;42.254;22.744;2022-09-01T10:14:12;94896.72;;;27.25;57.85
46379;BME280;32084;42.254;22.744;2022-09-01T10:16:40;94900.84;;;27.33;57.13
46379;BME280;32084;42.254;22.744;2022-09-01T10:19:10;94898.41;;;27.41;57.43
46379;BME280;32084;42.254;22.744;2022-09-01T10:21:37;94903.03;;;27.31;57.93
46379;BME280;32084;42.254;22.744;2022-09-01T10:24:11;94898.06;;;27.22;57.86
46379;BME280;32084;42.254;22.744;2022-09-01T10:26:39;94902.75;;;27.37;58.05
46379;BME280;32084;42.254;22.744;2022-09-01T10:31:33;94899.78;;;27.49;58.36
46379;BME280;32084;42.254;22.744;2022-09-01T10:34:01;94895.34;;;27.58;56.03
46379;BME280;32084;42.254;22.744;2022-09-01T10:36:28;94892.34;;;27.44;56.96
46379;BME280;32084;42.254;22.744;2022-09-01T10:38:55;94896.13;;;27.18;57.06
46379;BME280;32084;42.254;22.744;2022-09-01T10:44:09;94890.34;;;27.04;55.64
46379;BME280;32084;42.254;22.744;2022-09-01T10:49:02;94879.72;;;27.43;56.34
46379;BME280;32084;42.254;22.744;2022-09-01T10:51:42;94877.78;;;27.39;56.93
46379;BME280;32084;42.254;22.744;2022-09-01T10:54:09;94876.97;;;27.49;55.34
46379;BME280;32084;42.254;22.744;2022-09-01T10:56:54;94870.94;;;27.72;53.42
46379;BME280;32084;42.254;22.744;2022-09-01T11:04:21;94860.47;;;28.00;51.97
46379;BME280;32084;42.254;22.744;2022-09-01T11:09:20;94844.19;;;28.24;53.29
46379;BME280;32084;42.254;22.744;2022-09-01T11:12:09;94852.75;;;28.17;52.51
46379;BME280;32084;42.254;22.744;2022-09-01T11:14:52;94845.06;;;28.14;51.62
46379;BME280;32084;42.254;22.744;2022-09-01T11:30:21;94836.59;;;27.75;55.35
46379;BME280;32084;42.254;22.744;2022-09-01T11:32:51;94836.84;;;27.83;55.25
46379;BME280;32084;42.254;22.744;2022-09-01T11:35:22;94826.72;;;27.89;55.09
46379;BME280;32084;42.254;22.744;2022-09-01T11:37:51;94831.63;;;27.82;55.57
46379;BME280;32084;42.254;22.744;2022-09-01T11:40:20;94830.28;;;27.59;55.20
46379;BME280;32084;42.254;22.744;2022-09-01T11:42:47;94830.59;;;27.47;56.69
46379;BME280;32084;42.254;22.744;2022-09-01T11:45:17;94824.28;;;27.41;56.72
46379;BME280;32084;42.254;22.744;2022-09-01T11:47:44;94824.81;;;27.33;56.33
46379;BME280;32084;42.254;22.744;2022-09-01T11:50:19;94820.94;;;27.24;57.20
46379;BME280;32084;42.254;22.744;2022-09-01T11:55:26;94825.59;;;27.13;57.98
46379;BME280;32084;42.254;22.744;2022-09-01T11:57:53;94822.28;;;27.01;59.98
46379;BME280;32084;42.254;22.744;2022-09-01T12:00:33;94826.94;;;26.95;60.21
46379;BME280;32084;42.254;22.744;2022-09-01T12:03:24;94827.78;;;26.91;60.66
46379;BME280;32084;42.254;22.744;2022-09-01T12:05:53;94821.19;;;26.86;61.94
46379;BME280;32084;42.254;22.744;2022-09-01T12:08:24;94827.19;;;26.73;61.33
46379;BME280;32084;42.254;22.744;2022-09-01T12:11:01;94826.63;;;26.66;61.06
46379;BME280;32084;42.254;22.744;2022-09-01T12:13:28;94827.16;;;26.63;60.12
46379;BME280;32084;42.254;22.744;2022-09-01T12:16:02;94832.66;;;26.68;59.90
46379;BME280;32084;42.254;22.744;2022-09-01T12:18:35;94826.63;;;26.76;58.84
46379;BME280;32084;42.254;22.744;2022-09-01T12:21:05;94820.34;;;26.86;58.58
46379;BME280;32084;42.254;22.744;2022-09-01T12:23:33;94823.38;;;26.84;55.45
46379;BME280;32084;42.254;22.744;2022-09-01T12:26:01;94815.94;;;26.80;52.61
46379;BME280;32084;42.254;22.744;2022-09-01T12:28:28;94815.94;;;26.80;52.56
46379;BME280;32084;42.254;22.744;2022-09-01T12:30:59;94816.25;;;26.88;54.40
46379;BME280;32084;42.254;22.744;2022-09-01T12:33:26;94815.69;;;26.97;55.63
46379;BME280;32084;42.254;22.744;2022-09-01T12:36:12;94801.72;;;27.14;53.75
46379;BME280;32084;42.254;22.744;2022-09-01T12:38:38;94805.03;;;27.26;53.38
46379;BME280;32084;42.254;22.744;2022-09-01T12:41:21;94815.50;;;27.34;52.69
46379;BME280;32084;42.254;22.744;2022-09-01T12:43:47;94815.22;;;27.36;52.89
46379;BME280;32084;42.254;22.744;2022-09-01T12:46:37;94809.16;;;27.34;52.98
46379;BME280;32084;42.254;22.744;2022-09-01T12:49:16;94806.69;;;27.37;52.16
46379;BME280;32084;42.254;22.744;2022-09-01T12:51:42;94811.63;;;27.40;50.32
46379;BME280;32084;42.254;22.744;2022-09-01T12:54:13;94816.84;;;27.42;50.35
46379;BME280;32084;42.254;22.744;2022-09-01T12:56:39;94809.97;;;27.39;49.96
46379;BME280;32084;42.254;22.744;2022-09-01T12:59:13;94813.81;;;27.33;49.43
46379;BME280;32084;42.254;22.744;2022-09-01T13:01:40;94822.28;;;27.16;54.02
46379;BME280;32084;42.254;22.744;2022-09-01T13:04:15;94828.81;;;26.74;60.50
46379;BME280;32084;42.254;22.744;2022-09-01T13:06:47;94827.59;;;26.44;61.47
46379;BME280;32084;42.254;22.744;2022-09-01T13:09:13;94823.47;;;26.37;63.10
46379;BME280;32084;42.254;22.744;2022-09-01T13:11:40;94825.13;;;26.38;63.56
46379;BME280;32084;42.254;22.744;2022-09-01T13:14:13;94815.81;;;26.44;62.16
46379;BME280;32084;42.254;22.744;2022-09-01T13:16:39;94822.97;;;26.45;62.58
46379;BME280;32084;42.254;22.744;2022-09-01T13:19:05;94827.06;;;26.42;61.81
46379;BME280;32084;42.254;22.744;2022-09-01T13:21:32;94833.66;;;26.46;62.41
46379;BME280;32084;42.254;22.744;2022-09-01T13:23:59;94839.16;;;26.52;62.73
46379;BME280;32084;42.254;22.744;2022-09-01T13:26:25;94833.13;;;26.55;60.92
46379;BME280;32084;42.254;22.744;2022-09-01T13:28:52;94830.94;;;26.57;59.52
46379;BME280;32084;42.254;22.744;2022-09-01T13:31:18;94828.25;;;26.67;59.11
46379;BME280;32084;42.254;22.744;2022-09-01T13:33:44;94825.22;;;26.63;58.58
46379;BME280;32084;42.254;22.744;2022-09-01T13:36:10;94826.78;;;26.44;57.97
46379;BME280;32084;42.254;22.744;2022-09-01T13:38:36;94829.75;;;26.32;57.27
46379;BME280;32084;42.254;22.744;2022-09-01T13:41:04;94829.16;;;26.20;55.78
46379;BME280;32084;42.254;22.744;2022-09-01T13:43:30;94839.06;;;26.26;56.43
46379;BME280;32084;42.254;22.744;2022-09-01T13:45:56;94828.13;;;26.36;56.01
46379;BME280;32084;42.254;22.744;2022-09-01T13:48:22;94835.56;;;26.41;56.93
46379;BME280;32084;42.254;22.744;2022-09-01T13:50:48;94827.31;;;26.36;57.02
46379;BME280;32084;42.254;22.744;2022-09-01T13:53:15;94843.69;;;26.25;57.28
46379;BME280;32084;42.254;22.744;2022-09-01T13:55:42;94830.78;;;26.10;54.60
46379;BME280;32084;42.254;22.744;2022-09-01T13:58:08;94830.88;;;25.88;56.68
46379;BME280;32084;42.254;22.744;2022-09-01T14:00:41;94835.06;;;25.59;57.95
46379;BME280;32084;42.254;22.744;2022-09-01T14:03:09;94840.06;;;25.29;57.98
46379;BME280;32084;42.254;22.744;2022-09-01T14:05:37;94848.88;;;25.09;59.38
46379;BME280;32084;42.254;22.744;2022-09-01T14:08:04;94853.38;;;24.93;59.77
46379;BME280;32084;42.254;22.744;2022-09-01T14:10:31;94867.00;;;24.88;60.49
46379;BME280;32084;42.254;22.744;2022-09-01T14:12:58;94860.63;;;24.78;62.60
46379;BME280;32084;42.254;22.744;2022-09-01T14:15:24;94856.94;;;24.67;62.40
46379;BME280;32084;42.254;22.744;2022-09-01T14:17:51;94851.94;;;24.59;63.59
46379;BME280;32084;42.254;22.744;2022-09-01T14:20:20;94856.66;;;24.46;64.45